createdAt,value
2023-02-18T00:01:52.980Z,7.60
2023-02-18T00:04:21.860Z,7.53
2023-02-18T00:06:52.068Z,7.61
2023-02-18T00:09:22.620Z,7.68
2023-02-18T00:11:51.289Z,7.93
2023-02-18T00:14:20.269Z,8.18
2023-02-18T00:16:49.200Z,8.50
2023-02-18T00:19:21.049Z,8.58
2023-02-18T00:21:51.385Z,8.55
2023-02-18T00:24:20.095Z,8.69
2023-02-18T00:26:53.248Z,8.85
2023-02-18T00:29:22.610Z,8.84
2023-02-18T00:31:51.564Z,8.89
2023-02-18T00:34:20.426Z,9.12
2023-02-18T00:36:49.047Z,9.18
2023-02-18T00:39:19.309Z,9.18
2023-02-18T00:41:48.270Z,9.26
2023-02-18T00:44:17.268Z,9.28
2023-02-18T00:46:49.215Z,9.29
2023-02-18T00:49:18.497Z,9.26
2023-02-18T00:51:47.198Z,9.31
2023-02-18T00:54:16.041Z,9.26
2023-02-18T00:56:46.263Z,9.40
2023-02-18T00:59:15.019Z,9.38
2023-02-18T01:01:43.988Z,9.38
2023-02-18T01:04:13.109Z,9.39
2023-02-18T01:06:42.066Z,9.37
2023-02-18T01:09:11.974Z,9.36
2023-02-18T01:11:40.875Z,9.36
2023-02-18T01:14:11.026Z,9.44
2023-02-18T01:16:40.196Z,9.53
2023-02-18T01:19:10.683Z,9.55
2023-02-18T01:21:40.636Z,9.53
2023-02-18T01:24:10.033Z,9.48
2023-02-18T01:26:38.727Z,9.43
2023-02-18T01:29:07.716Z,9.48
2023-02-18T01:31:38.002Z,9.59
2023-02-18T01:34:06.879Z,9.69
2023-02-18T01:36:35.626Z,9.72
2023-02-18T01:39:06.470Z,9.86
2023-02-18T01:41:35.753Z,9.86
2023-02-18T01:44:17.801Z,9.85
2023-02-18T01:46:49.917Z,9.87
2023-02-18T01:49:22.360Z,9.91
2023-02-18T01:51:55.693Z,9.92
2023-02-18T01:54:30.484Z,10.01
2023-02-18T01:57:04.505Z,10.09
2023-02-18T01:59:38.890Z,10.09
2023-02-18T02:02:14.728Z,10.10
2023-02-18T02:04:44.125Z,10.15
2023-02-18T02:07:13.217Z,10.11
2023-02-18T02:09:43.990Z,10.07
2023-02-18T02:12:30.039Z,10.10
2023-02-18T02:15:21.069Z,10.19
2023-02-18T02:18:06.599Z,10.16
2023-02-18T02:21:04.150Z,10.18
2023-02-18T02:24:05.608Z,10.26
2023-02-18T02:27:08.136Z,10.20
2023-02-18T02:30:03.082Z,10.13
2023-02-18T02:33:04.287Z,10.18
2023-02-18T02:35:39.393Z,10.13
2023-02-18T02:38:14.018Z,10.31
2023-02-18T02:40:51.138Z,10.39
2023-02-18T02:43:29.328Z,10.48
2023-02-18T02:46:04.335Z,10.41
2023-02-18T02:48:44.274Z,10.34
2023-02-18T02:51:20.165Z,10.17
2023-02-18T02:53:49.041Z,10.10
2023-02-18T02:56:19.141Z,10.19
2023-02-18T02:58:59.428Z,10.11
2023-02-18T03:01:43.103Z,9.89
2023-02-18T03:04:32.786Z,9.80
2023-02-18T03:07:34.567Z,9.81
2023-02-18T03:10:27.454Z,9.81
2023-02-18T03:13:05.796Z,9.80
2023-02-18T03:15:41.826Z,9.78
2023-02-18T03:18:19.886Z,9.79
2023-02-18T03:20:56.674Z,9.77
2023-02-18T03:23:31.518Z,9.76
2023-02-18T03:26:01.149Z,9.74
2023-02-18T03:28:32.737Z,9.74
2023-02-18T03:31:11.323Z,9.68
2023-02-18T03:33:46.185Z,9.61
2023-02-18T03:36:15.206Z,9.60
2023-02-18T03:38:56.081Z,9.51
2023-02-18T03:41:25.135Z,9.57
2023-02-18T03:43:55.537Z,9.53
2023-02-18T03:46:24.348Z,9.44
2023-02-18T03:48:53.623Z,9.43
2023-02-18T03:51:23.335Z,9.50
2023-02-18T03:53:53.908Z,9.47
2023-02-18T03:56:23.110Z,9.47
2023-02-18T03:58:52.056Z,9.40
2023-02-18T04:01:20.805Z,9.32
2023-02-18T04:03:49.806Z,9.31
2023-02-18T04:06:18.700Z,9.41
2023-02-18T04:08:47.480Z,9.43
2023-02-18T04:11:18.211Z,9.38
2023-02-18T04:13:47.026Z,9.32
2023-02-18T04:16:16.338Z,9.29
2023-02-18T04:18:45.099Z,9.21
2023-02-18T04:21:13.794Z,9.12
2023-02-18T04:23:42.668Z,9.02
2023-02-18T04:26:11.520Z,8.98
2023-02-18T04:28:41.782Z,8.94
2023-02-18T04:31:11.923Z,8.89
2023-02-18T04:33:40.789Z,8.92
2023-02-18T04:36:10.405Z,8.91
2023-02-18T04:38:39.638Z,8.85
2023-02-18T04:41:08.370Z,8.84
2023-02-18T04:43:37.155Z,8.78
2023-02-18T04:46:07.591Z,8.72
2023-02-18T04:48:36.657Z,8.69
2023-02-18T04:51:06.080Z,8.64
2023-02-18T04:53:34.847Z,8.57
2023-02-18T04:56:03.563Z,8.60
2023-02-18T04:58:32.443Z,8.62
2023-02-18T05:01:02.129Z,8.76
2023-02-18T05:03:33.454Z,8.79
2023-02-18T05:06:02.397Z,8.87
2023-02-18T05:08:31.068Z,9.00
2023-02-18T05:10:59.845Z,9.01
2023-02-18T05:13:28.577Z,9.02
2023-02-18T05:15:57.469Z,9.14
2023-02-18T05:18:26.359Z,9.10
2023-02-18T05:20:57.410Z,8.99
2023-02-18T05:23:26.239Z,8.95
2023-02-18T05:25:56.008Z,8.94
2023-02-18T05:28:24.978Z,9.06
2023-02-18T05:30:53.661Z,9.09
2023-02-18T05:33:22.406Z,9.05
2023-02-18T05:35:51.128Z,9.06
2023-02-18T05:38:21.434Z,9.05
2023-02-18T05:40:50.217Z,8.99
2023-02-18T05:43:19.037Z,8.88
2023-02-18T05:45:47.896Z,8.76
2023-02-18T05:48:16.682Z,8.71
2023-02-18T05:50:45.673Z,8.78
2023-02-18T05:53:16.126Z,8.72
2023-02-18T05:55:47.940Z,8.77
2023-02-18T05:58:17.245Z,8.79
2023-02-18T06:00:45.948Z,8.72
2023-02-18T06:03:15.140Z,8.71
2023-02-18T06:05:43.835Z,8.70
2023-02-18T06:08:12.677Z,8.72
2023-02-18T06:10:42.387Z,8.73
2023-02-18T06:13:12.834Z,8.79
2023-02-18T06:15:41.899Z,8.85
2023-02-18T06:18:10.683Z,8.89
2023-02-18T06:20:40.843Z,8.91
2023-02-18T06:23:11.598Z,8.92
2023-02-18T06:25:40.543Z,8.85
2023-02-18T06:28:09.223Z,8.79
2023-02-18T06:30:39.477Z,8.76
2023-02-18T06:33:08.454Z,8.72
2023-02-18T06:35:37.179Z,8.73
2023-02-18T06:38:06.087Z,8.79
2023-02-18T06:40:35.508Z,8.88
2023-02-18T06:43:04.389Z,9.01
2023-02-18T06:45:33.094Z,9.08
2023-02-18T06:48:03.624Z,9.15
2023-02-18T06:50:32.678Z,9.19
2023-02-18T06:53:01.440Z,9.26
2023-02-18T06:55:30.415Z,9.37
2023-02-18T06:57:59.343Z,9.44
2023-02-18T07:00:28.723Z,9.58
2023-02-18T07:02:58.033Z,9.63
2023-02-18T07:05:28.442Z,9.66
2023-02-18T07:07:57.136Z,9.72
2023-02-18T07:10:26.108Z,9.76
2023-02-18T07:12:54.887Z,9.78
2023-02-18T07:15:24.559Z,9.80
2023-02-18T07:17:53.883Z,9.83
2023-02-18T07:20:23.366Z,9.91
2023-02-18T07:22:53.921Z,9.92
2023-02-18T07:25:23.507Z,9.77
2023-02-18T07:27:52.722Z,9.89
2023-02-18T07:30:22.371Z,9.88
2023-02-18T07:32:51.925Z,9.87
2023-02-18T07:35:21.680Z,9.85
2023-02-18T07:37:52.425Z,9.86
2023-02-18T07:40:22.699Z,9.97
2023-02-18T07:42:52.776Z,10.04
2023-02-18T07:45:21.863Z,10.05
2023-02-18T07:47:50.644Z,10.13
2023-02-18T07:50:19.555Z,10.17
2023-02-18T07:52:48.207Z,10.18
2023-02-18T07:55:18.544Z,10.23
2023-02-18T07:57:57.177Z,10.28
2023-02-18T08:00:26.178Z,10.44
2023-02-18T08:02:54.765Z,10.51
2023-02-18T08:05:24.246Z,10.57
2023-02-18T08:07:52.965Z,10.67
2023-02-18T08:10:23.182Z,10.73
2023-02-18T08:12:52.051Z,10.75
2023-02-18T08:15:20.719Z,10.83
2023-02-18T08:17:49.513Z,10.94
2023-02-18T08:20:18.341Z,10.99
2023-02-18T08:22:47.112Z,11.03
2023-02-18T08:25:27.642Z,11.07
2023-02-18T08:28:00.079Z,11.18
2023-02-18T08:30:29.189Z,11.23
2023-02-18T08:32:58.021Z,11.31
2023-02-18T08:35:26.677Z,11.49
2023-02-18T08:37:56.184Z,11.58
2023-02-18T08:40:25.607Z,11.61
2023-02-18T08:42:54.366Z,11.63
2023-02-18T08:45:24.553Z,11.63
2023-02-18T08:48:18.806Z,11.68
2023-02-18T08:50:42.291Z,11.60
2023-02-18T08:53:10.880Z,11.57
2023-02-18T08:55:42.469Z,11.49
2023-02-18T08:58:11.761Z,11.40
2023-02-18T09:00:44.052Z,11.41
2023-02-18T09:03:15.326Z,11.36
2023-02-18T09:05:44.336Z,11.31
2023-02-18T09:08:12.984Z,11.27
2023-02-18T09:10:41.756Z,11.26
2023-02-18T09:13:10.554Z,11.22
2023-02-18T09:15:39.333Z,11.19
2023-02-18T09:18:09.382Z,11.17
2023-02-18T09:20:38.236Z,11.15
2023-02-18T09:23:07.009Z,11.17
2023-02-18T09:25:35.722Z,11.17
2023-02-18T09:28:04.481Z,11.17
2023-02-18T09:30:33.265Z,11.11
2023-02-18T09:33:02.031Z,11.11
2023-02-18T09:35:33.047Z,11.11
2023-02-18T09:38:03.247Z,11.10
2023-02-18T09:40:37.398Z,11.09
2023-02-18T09:43:07.929Z,11.10
2023-02-18T09:45:36.960Z,11.11
2023-02-18T09:48:06.882Z,11.10
2023-02-18T09:50:37.238Z,11.09
2023-02-18T09:53:06.497Z,11.05
2023-02-18T09:55:39.665Z,11.10
2023-02-18T09:58:15.576Z,11.10
2023-02-18T10:00:48.583Z,11.18
2023-02-18T10:03:20.526Z,11.27
2023-02-18T10:05:59.655Z,11.39
2023-02-18T10:08:31.131Z,11.54
2023-02-18T10:10:59.838Z,11.65
2023-02-18T10:13:32.192Z,11.75
2023-02-18T10:16:01.412Z,11.82
2023-02-18T10:18:32.691Z,11.88
2023-02-18T10:21:08.891Z,11.96
2023-02-18T10:23:40.468Z,12.02
2023-02-18T10:26:16.933Z,12.03
2023-02-18T10:28:46.738Z,12.05
2023-02-18T10:31:21.523Z,12.06
2023-02-18T10:33:58.548Z,12.04
2023-02-18T10:36:35.696Z,12.01
2023-02-18T10:39:33.195Z,12.02
2023-02-18T10:42:15.623Z,11.98
2023-02-18T10:44:57.152Z,11.96
2023-02-18T10:47:40.821Z,11.98
2023-02-18T10:50:14.347Z,11.95
2023-02-18T10:52:48.824Z,11.94
2023-02-18T10:55:19.810Z,11.95
2023-02-18T10:57:51.467Z,11.94
2023-02-18T11:00:24.263Z,11.93
2023-02-18T11:03:17.708Z,11.91
2023-02-18T11:05:47.318Z,11.91
2023-02-18T11:08:19.833Z,11.88
2023-02-18T11:10:51.331Z,11.84
2023-02-18T11:13:27.638Z,11.78
2023-02-18T11:16:00.136Z,11.66
2023-02-18T11:18:35.266Z,11.61
2023-02-18T11:21:06.631Z,11.51
2023-02-18T11:23:49.696Z,11.37
2023-02-18T11:26:24.848Z,11.38
2023-02-18T11:29:01.602Z,11.31
2023-02-18T11:31:43.152Z,11.16
2023-02-18T11:34:19.928Z,11.17
2023-02-18T11:36:50.624Z,11.14
2023-02-18T11:39:24.582Z,11.10
2023-02-18T11:41:59.377Z,11.08
2023-02-18T11:44:34.322Z,11.08
2023-02-18T11:47:05.022Z,11.07
2023-02-18T11:49:36.358Z,11.05
2023-02-18T11:52:14.049Z,11.02
2023-02-18T11:54:44.190Z,10.97
2023-02-18T11:57:15.885Z,10.95
2023-02-18T11:59:45.714Z,10.93
2023-02-18T12:02:33.208Z,10.96
2023-02-18T12:05:06.393Z,10.94
2023-02-18T12:07:46.436Z,10.88
2023-02-18T12:10:24.684Z,10.84
2023-02-18T12:13:02.644Z,10.80
2023-02-18T12:15:47.170Z,10.75
2023-02-18T12:18:42.854Z,10.69
2023-02-18T12:21:31.748Z,10.67
2023-02-18T12:24:12.447Z,10.63
2023-02-18T12:26:55.842Z,10.60
2023-02-18T12:29:44.166Z,10.56
2023-02-18T12:32:34.510Z,10.61
2023-02-18T12:35:36.048Z,10.64
2023-02-18T12:38:23.181Z,10.66
2023-02-18T12:41:11.205Z,10.66
2023-02-18T12:43:55.127Z,10.65
2023-02-18T12:46:41.627Z,10.64
2023-02-18T12:49:27.966Z,10.62
2023-02-18T12:52:07.819Z,10.58
2023-02-18T12:54:53.340Z,10.55
2023-02-18T12:57:45.309Z,10.52
2023-02-18T13:00:51.856Z,10.51
2023-02-18T13:03:42.421Z,10.50
2023-02-18T13:06:24.585Z,10.54
2023-02-18T13:09:04.810Z,10.55
2023-02-18T13:11:47.035Z,10.56
2023-02-18T13:14:21.984Z,10.58
2023-02-18T13:16:56.556Z,10.59
2023-02-18T13:19:28.948Z,10.62
2023-02-18T13:22:01.197Z,10.64
2023-02-18T13:24:35.443Z,10.66
2023-02-18T13:27:16.300Z,10.66
2023-02-18T13:29:52.750Z,10.64
2023-02-18T13:32:31.331Z,10.65
2023-02-18T13:35:04.974Z,10.63
2023-02-18T13:37:40.524Z,10.64
2023-02-18T13:40:15.941Z,10.62
2023-02-18T13:42:44.807Z,10.62
2023-02-18T13:45:35.036Z,10.61
2023-02-18T13:48:24.937Z,10.61
2023-02-18T13:50:55.835Z,10.64
2023-02-18T13:53:26.917Z,10.67
2023-02-18T13:56:02.122Z,10.59
2023-02-18T13:58:40.239Z,10.72
2023-02-18T14:01:21.304Z,10.74
2023-02-18T14:03:57.766Z,10.78
2023-02-18T14:06:29.879Z,10.77
2023-02-18T14:09:26.374Z,10.83
2023-02-18T14:11:58.041Z,10.89
2023-02-18T14:14:44.698Z,10.95
2023-02-18T14:17:36.918Z,10.97
2023-02-18T14:20:26.458Z,11.00
2023-02-18T14:22:56.399Z,11.00
2023-02-18T14:25:36.854Z,10.99
2023-02-18T14:28:34.518Z,10.97
2023-02-18T14:31:03.938Z,10.95
2023-02-18T14:33:36.473Z,10.94
2023-02-18T14:36:19.530Z,10.91
2023-02-18T14:38:57.564Z,10.86
2023-02-18T14:41:47.139Z,10.85
2023-02-18T14:44:25.717Z,10.81
2023-02-18T14:47:11.203Z,10.79
2023-02-18T14:49:44.717Z,10.78
2023-02-18T14:52:25.039Z,10.76
2023-02-18T14:54:55.582Z,10.75
2023-02-18T14:57:38.759Z,10.71
2023-02-18T15:00:09.741Z,10.81
2023-02-18T15:02:40.226Z,10.89
2023-02-18T15:05:18.104Z,10.95
2023-02-18T15:08:00.904Z,10.98
2023-02-18T15:10:39.326Z,11.05
2023-02-18T15:13:16.224Z,11.23
2023-02-18T15:15:46.797Z,11.33
2023-02-18T15:18:23.243Z,11.45
2023-02-18T15:20:52.825Z,11.50
2023-02-18T15:23:21.429Z,11.57
2023-02-18T15:25:55.642Z,11.63
2023-02-18T15:28:29.249Z,11.66
2023-02-18T15:30:59.666Z,11.70
2023-02-18T15:33:29.167Z,11.75
2023-02-18T15:36:03.238Z,11.79
2023-02-18T15:38:32.985Z,11.80
2023-02-18T15:41:04.160Z,11.80
2023-02-18T15:43:35.498Z,11.82
2023-02-18T15:46:15.273Z,11.81
2023-02-18T15:48:48.710Z,11.80
2023-02-18T15:51:23.435Z,11.75
2023-02-18T15:53:55.485Z,11.67
2023-02-18T15:56:32.518Z,11.58
2023-02-18T15:59:17.380Z,11.52
2023-02-18T16:01:51.337Z,11.51
2023-02-18T16:04:21.603Z,11.45
2023-02-18T16:06:52.551Z,11.38
2023-02-18T16:09:24.892Z,11.30
2023-02-18T16:11:59.727Z,11.21
2023-02-18T16:14:33.380Z,11.15
2023-02-18T16:17:17.087Z,11.03
2023-02-18T16:20:03.983Z,11.03
2023-02-18T16:22:39.075Z,11.01
2023-02-18T16:25:18.176Z,11.02
2023-02-18T16:27:55.529Z,10.95
2023-02-18T16:30:27.100Z,11.01
2023-02-18T16:32:56.209Z,11.00
2023-02-18T16:35:25.519Z,11.00
2023-02-18T16:37:55.407Z,10.98
2023-02-18T16:40:28.155Z,11.03
2023-02-18T16:43:01.095Z,11.06
2023-02-18T16:45:38.288Z,11.09
2023-02-18T16:48:07.799Z,11.09
2023-02-18T16:50:36.692Z,11.13
2023-02-18T16:53:05.447Z,11.16
2023-02-18T16:55:34.296Z,11.16
2023-02-18T16:58:04.433Z,11.21
2023-02-18T17:00:33.654Z,11.19
2023-02-18T17:03:03.002Z,11.17
2023-02-18T17:05:35.693Z,11.18
2023-02-18T17:08:18.952Z,11.15
2023-02-18T17:10:49.637Z,11.11
2023-02-18T17:13:21.634Z,11.07
2023-02-18T17:15:53.682Z,11.02
2023-02-18T17:18:24.063Z,10.95
2023-02-18T17:20:54.189Z,10.94
2023-02-18T17:23:25.384Z,10.94
2023-02-18T17:25:54.653Z,10.95
2023-02-18T17:28:24.872Z,10.97
2023-02-18T17:30:58.316Z,11.02
2023-02-18T17:33:27.514Z,11.08
2023-02-18T17:35:56.108Z,11.11
2023-02-18T17:38:25.076Z,11.16
2023-02-18T17:40:53.895Z,11.18
2023-02-18T17:43:25.689Z,11.15
2023-02-18T17:45:57.688Z,11.12
2023-02-18T17:48:26.785Z,11.11
2023-02-18T17:50:55.764Z,11.08
2023-02-18T17:53:25.169Z,11.03
2023-02-18T17:55:54.348Z,11.08
2023-02-18T17:58:23.180Z,11.19
2023-02-18T18:00:54.200Z,11.29
2023-02-18T18:03:24.774Z,11.33
2023-02-18T18:05:54.780Z,11.36
2023-02-18T18:08:23.486Z,11.36
2023-02-18T18:10:56.070Z,11.37
2023-02-18T18:13:27.162Z,11.35
2023-02-18T18:15:58.058Z,11.37
2023-02-18T18:18:29.362Z,11.37
2023-02-18T18:21:01.426Z,11.39
2023-02-18T18:23:30.316Z,11.41
2023-02-18T18:26:00.271Z,11.41
2023-02-18T18:28:33.116Z,11.49
2023-02-18T18:31:02.923Z,11.51
2023-02-18T18:33:35.998Z,11.57
2023-02-18T18:36:05.162Z,11.71
2023-02-18T18:38:34.218Z,11.85
2023-02-18T18:41:03.016Z,11.89
2023-02-18T18:43:33.488Z,11.93
2023-02-18T18:46:02.541Z,11.92
2023-02-18T18:48:32.731Z,12.04
2023-02-18T18:51:02.622Z,12.13
2023-02-18T18:53:33.106Z,12.14
2023-02-18T18:56:04.128Z,12.17
2023-02-18T18:58:33.213Z,12.15
2023-02-18T19:01:07.353Z,12.11
2023-02-18T19:03:38.938Z,12.07
2023-02-18T19:06:07.729Z,12.02
2023-02-18T19:08:36.403Z,11.99
2023-02-18T19:11:05.491Z,11.94
2023-02-18T19:13:36.247Z,11.97
2023-02-18T19:16:09.822Z,11.93
2023-02-18T19:18:40.216Z,11.87
2023-02-18T19:21:09.600Z,11.90
2023-02-18T19:23:38.451Z,11.89
2023-02-18T19:26:07.377Z,11.85
2023-02-18T19:28:36.188Z,11.79
2023-02-18T19:31:09.885Z,11.77
2023-02-18T19:33:41.091Z,11.76
2023-02-18T19:36:11.646Z,11.76
2023-02-18T19:38:40.484Z,11.74
2023-02-18T19:41:12.511Z,11.73
2023-02-18T19:43:42.008Z,11.72
2023-02-18T19:46:11.827Z,11.67
2023-02-18T19:48:42.702Z,11.61
2023-02-18T19:51:11.846Z,11.58
2023-02-18T19:53:40.986Z,11.59
2023-02-18T19:56:09.669Z,11.60
2023-02-18T19:58:40.362Z,11.56
2023-02-18T20:01:13.563Z,11.53
2023-02-18T20:03:44.764Z,11.42
2023-02-18T20:06:17.561Z,11.43
2023-02-18T20:08:46.895Z,11.47
2023-02-18T20:11:15.622Z,11.47
2023-02-18T20:13:45.116Z,11.48
2023-02-18T20:16:13.894Z,11.50
2023-02-18T20:18:44.152Z,11.52
2023-02-18T20:21:13.244Z,11.49
2023-02-18T20:23:42.504Z,11.48
2023-02-18T20:26:12.216Z,11.50
2023-02-18T20:28:41.100Z,11.54
2023-02-18T20:31:12.781Z,11.53
2023-02-18T20:33:44.646Z,11.50
2023-02-18T20:36:15.632Z,11.46
2023-02-18T20:38:44.680Z,11.46
2023-02-18T20:41:17.632Z,11.47
2023-02-18T20:43:46.772Z,11.41
2023-02-18T20:46:17.218Z,11.43
2023-02-18T20:48:48.270Z,11.43
2023-02-18T20:51:19.428Z,11.40
2023-02-18T20:53:49.083Z,11.36
2023-02-18T20:56:20.982Z,11.33
2023-02-18T20:58:49.954Z,11.29
2023-02-18T21:01:20.472Z,11.26
2023-02-18T21:03:51.266Z,11.28
2023-02-18T21:06:22.913Z,11.29
2023-02-18T21:08:54.955Z,11.25
2023-02-18T21:11:26.443Z,11.23
2023-02-18T21:13:57.268Z,11.22
2023-02-18T21:16:28.742Z,11.24
2023-02-18T21:18:58.897Z,11.26
2023-02-18T21:21:28.436Z,11.24
2023-02-18T21:23:57.271Z,11.24
2023-02-18T21:26:27.829Z,11.16
2023-02-18T21:28:58.891Z,11.10
2023-02-18T21:31:30.945Z,11.02
2023-02-18T21:34:01.491Z,11.04
2023-02-18T21:36:32.990Z,11.04
2023-02-18T21:39:03.613Z,11.03
2023-02-18T21:41:34.328Z,11.03
2023-02-18T21:44:03.593Z,11.00
2023-02-18T21:46:34.363Z,10.95
2023-02-18T21:49:09.996Z,10.97
2023-02-18T21:51:52.798Z,10.93
2023-02-18T21:54:23.980Z,10.96
2023-02-18T21:56:53.375Z,10.94
2023-02-18T21:59:23.683Z,10.82
2023-02-18T22:01:52.455Z,10.71
2023-02-18T22:04:23.054Z,10.63
2023-02-18T22:06:52.249Z,10.54
2023-02-18T22:09:21.033Z,10.55
2023-02-18T22:11:49.877Z,10.52
2023-02-18T22:14:18.995Z,10.60
2023-02-18T22:16:48.269Z,10.58
2023-02-18T22:19:16.999Z,10.50
2023-02-18T22:21:47.480Z,10.48
2023-02-18T22:24:17.962Z,10.42
2023-02-18T22:26:48.783Z,10.36
2023-02-18T22:29:19.672Z,10.33
2023-02-18T22:31:49.769Z,10.38
2023-02-18T22:34:18.737Z,10.37
2023-02-18T22:36:49.141Z,10.50
2023-02-18T22:39:18.357Z,10.51
2023-02-18T22:41:47.071Z,10.49
2023-02-18T22:44:18.556Z,10.61
2023-02-18T22:46:47.573Z,10.72
2023-02-18T22:49:16.351Z,10.70
2023-02-18T22:51:46.332Z,10.80
2023-02-18T22:54:18.602Z,10.80
2023-02-18T22:56:49.880Z,10.95
2023-02-18T22:59:20.006Z,10.95
2023-02-18T23:01:50.667Z,10.83
2023-02-18T23:04:20.925Z,10.69
2023-02-18T23:06:50.782Z,10.64
2023-02-18T23:09:22.981Z,10.58
2023-02-18T23:11:52.902Z,10.70
2023-02-18T23:14:22.719Z,10.72
2023-02-18T23:17:04.502Z,10.71
2023-02-18T23:19:34.202Z,10.70
2023-02-18T23:22:02.671Z,10.62
2023-02-18T23:24:35.073Z,10.46
2023-02-18T23:27:04.497Z,10.32
2023-02-18T23:29:33.695Z,10.30
2023-02-18T23:32:02.966Z,10.29
2023-02-18T23:34:31.774Z,10.49
2023-02-18T23:37:00.678Z,10.67
2023-02-18T23:39:30.125Z,10.70
2023-02-18T23:42:00.412Z,10.74
2023-02-18T23:44:29.717Z,10.65
2023-02-18T23:46:58.400Z,10.63
2023-02-18T23:49:29.070Z,10.56
2023-02-18T23:51:58.850Z,10.50
2023-02-18T23:54:27.716Z,10.44
2023-02-18T23:56:56.473Z,10.30
2023-02-18T23:59:26.695Z,10.29
